Aérodrome :
LOGIN :

S'inscrire | Disclaimer

   EN    FR    IT 

 










Légende :    VFR   VFR Marginal   IFR   IFR Intensif   IFR Très Intensif
Visi : 
Plafond : 
>= 8 km
>= 3000ft
5 à 8 km
1000 à 3000 ft
1500m à 5 km
500 à 1000 ft
800 à 1500m
200 à 500 ft
< 800m
< 200 ft
Symboles :   Orages  Brouillard  Fortes neiges  Fortes précipitations  Vent > 20 kt
SIGMETs :   Divers  Orages  Givrage  Turbulence  Onde Orograph.  Cendres Volcan.







- Altitude de l'aérodrome : 197 ft
- Code IATA : XOG
- Voir les cartes d'approche


LFMO - Orange

DERNIER METAR :
  • 190400Z AUTO 31001KT 7000 NSC 00/M01 Q1023 TEMPO 3000 BR

METARs EXPIRÉS :
  • 190330Z AUTO 00000KT CAVOK 02/01 Q1023 TEMPO 3000 BR
  • 190300Z AUTO 00000KT 9000 NSC 02/00 Q1023 TEMPO 3000 BR
  • 190230Z AUTO 08002KT 9999 SCT043 02/01 Q1023 TEMPO 3000 BR
  • 190200Z AUTO 04002KT 9000 BKN042 03/01 Q1024 TEMPO 3000 BR
  • 190130Z AUTO 06002KT 8000 BKN041 03/02 Q1024 TEMPO 3000 BR

TAF TAF LFMO
Valide du 19 à 03h jusqu'au 20 à 03h UTC


190200Z 1903/2003 VRB02KT 9000 BKN040
TEMPO 1904/1908 3000 BR
Pas de NOTAMs connus pour ce terrain.



MET'MAP, la Météo Aéronautique d'un coup d'oeil ! - Copyright ORBIFLY Décembre 2007 - Disclaimer

ORBIFLY MET'MAP TEAM :

Programmation & Développement : Alexandra Zaïnal
Conception & Développement : Baudouin d'Aumeries
Co-Programmation & Développement : Marc-Olivier Méhu
Soutien technique & logistique : Manuel Goepfert

Contact : metmap@orbifly.com




SOURCES & CREDITS :

   NOAA